メインページ
METAR-TAF:

METAR-TAF

空港 :

ウンベルト・デルガード空港

リスボン, ポルトガル

緯度: 38-46N, 経度: 009-08W, 海抜: 114m

現時点の気象観測

当レポートは38分前の05:00(UTC)に作成
北東の風 3kt
気温 14°C
湿度 94%
気圧 1019 hPa
視程10km以上
高度1000ftの雲はほとんどない

METAR: LPPT 220500Z 04003KT 9999 FEW010 14/13 Q1019

時間: 06:38 (05:38 UTC)

予報

当レポートは38分前の05:00(UTC)に作成
予報は22日の 06時(UTC)から 23日の 12時(UTC)まで有効
東/北東の風 5kt
視程: 5000m
高度300ftの雲は散在している
確率 30%
22日の 06時(UTC)から 22日の 09時(UTC)まで
視程: 0200m
高度100ftの
22日の 09時(UTC)から 22日の 12時(UTC)まで徐々に
視程10km以上
高度2000ftの雲はほとんどない
22日の 12時(UTC)から 22日の 18時(UTC)まで一時的に
変向風 3kt
高度2500ftの雲はほとんどない
高度3500ftの雲はほとんどない, 塔状積雲.
22日の 18時(UTC)から 22日の 20時(UTC)まで徐々に
北/北西の風 7kt
23日の 00時(UTC)から 23日の 03時(UTC)まで徐々に
北東の風 5kt
高度1200ftの雲はほとんどない
確率 30% :
23日の 05時(UTC)から 23日の 09時(UTC)まで一時的に
視程: 3000m
高度300ftの雲は散在している

TAF: LPPT 220500Z 2206/2312 06005KT 5000 BR SCT003 PROB30 2206/2209 0200 FG VV001 BECMG 2209/2212 9999 NSW FEW020 TEMPO 2212/2218 VRB03KT FEW025 FEW035TCU BECMG 2218/2220 34007KT BECMG 2300/2303 04005KT FEW012 PROB30 TEMPO 2305/2309 3000 BR SCT003

4,000以上の空港の気象観測と天気予報(METAR報とTAF報)

利用可能な観測所は地図上に黄色い丸と赤い丸で示す。

丸の上にカーソルを重ねると観測所名を参照できる。

次にクリックすると気象観測と天気予報を参照できる。

マップの切り替え:黒色「×」印の緑ボタンをクリックして拡大、「-」印の緑ボタンをクリックして縮小、緑色の三角印をクリックして隣りの地図に切り替え


METAR-TAF: